Nearby METAR Reports

 

KTCM - Tacoma,Washington, USA
Distance from station: NE 9mi, 14km
Updated: 04/21/2018 4:58pm
Few Clouds
Few Clouds
 Wind from W
Wind: W 14 mph , 22 km/h
Temperature: 55°F , 13°C
Dew Point: 39°F , 4°C
Humidity: 55%
Barometer: 30.40 inHg , 1029.5 hPa
Clouds: Few Clouds
Visibility: 10 miles , 16 km
Cloud details: Few Clouds 16000 ft
2018/04/21 23:58 KTCM 212358Z AUTO 27012KT 10SM FEW160 13/04 A3040 RMK AO2 SLP299 T01270041 10144 20111 51004 $
KSEA - Seattle,Washington, USA
Distance from station: N 9mi, 14km
Updated: 04/21/2018 4:53pm
Overcast
Overcast
 Wind from WSW
Wind: WSW 3 mph , 6 km/h
Temperature: 54°F , 12°C
Dew Point: 37°F , 3°C
Humidity: 54%
Barometer: 30.40 inHg , 1029.5 hPa
Clouds: Overcast
Visibility: 10 miles , 16 km
Cloud details: Few Clouds 3500 ft
Mostly cloudy 5000 ft
Overcast 6500 ft
2018/04/21 23:53 KSEA 212353Z 24003KT 10SM FEW035 BKN050 OVC065 12/03 A3040 RMK AO2 SLP302 60000 T01220033 10128 20100 50000
 
KOLM - Olympia,Washington, USA
Distance from station: NNW 14mi, 23km
Updated: 04/21/2018 4:54pm
Clear
Clear
 Wind from WNW
Wind: WNW 6 mph , 9 km/h
Temperature: 55°F , 13°C
Dew Point: 36°F , 2°C
Humidity: 47%
Barometer: 30.41 inHg , 1029.8 hPa
Clouds: Clear
Visibility: 10 miles , 16 km
2018/04/21 23:54 KOLM 212354Z 30005KT 10SM CLR 13/02 A3041 RMK AO2 SLP298 T01280022 10139 20106 50002